sensor_id;sensor_type;location;lat;lon;timestamp;pressure;altitude;pressure_sealevel;temperature;humidity
31225;BME280;17847;31.524;74.366;2023-04-27T00:00:24;98276.66;;;23.01;50.08
31225;BME280;17847;31.524;74.366;2023-04-27T00:02:54;98298.53;;;22.99;50.33
31225;BME280;17847;31.524;74.366;2023-04-27T00:05:25;98316.38;;;23.00;50.81
31225;BME280;17847;31.524;74.366;2023-04-27T00:07:55;98312.84;;;23.00;50.96
31225;BME280;17847;31.524;74.366;2023-04-27T00:10:24;98310.97;;;23.00;50.32
31225;BME280;17847;31.524;74.366;2023-04-27T00:12:53;98294.75;;;23.00;49.99
31225;BME280;17847;31.524;74.366;2023-04-27T00:15:23;98297.41;;;23.05;49.47
31225;BME280;17847;31.524;74.366;2023-04-27T00:17:52;98300.13;;;23.05;47.61
31225;BME280;17847;31.524;74.366;2023-04-27T00:20:22;98298.41;;;23.14;47.37
31225;BME280;17847;31.524;74.366;2023-04-27T00:22:52;98298.16;;;23.11;48.89
31225;BME280;17847;31.524;74.366;2023-04-27T00:25:21;98299.28;;;23.10;49.40
31225;BME280;17847;31.524;74.366;2023-04-27T00:27:50;98288.75;;;23.08;49.43
31225;BME280;17847;31.524;74.366;2023-04-27T00:30:19;98287.13;;;23.07;48.43
31225;BME280;17847;31.524;74.366;2023-04-27T00:32:49;98271.44;;;23.09;49.07
31225;BME280;17847;31.524;74.366;2023-04-27T00:35:18;98260.91;;;23.08;48.91
31225;BME280;17847;31.524;74.366;2023-04-27T00:37:48;98262.53;;;23.09;49.22
31225;BME280;17847;31.524;74.366;2023-04-27T00:40:19;98258.47;;;23.06;49.42
31225;BME280;17847;31.524;74.366;2023-04-27T00:42:49;98256.09;;;23.05;49.46
31225;BME280;17847;31.524;74.366;2023-04-27T00:45:18;98250.66;;;23.10;49.14
31225;BME280;17847;31.524;74.366;2023-04-27T00:47:48;98273.03;;;23.10;48.95
31225;BME280;17847;31.524;74.366;2023-04-27T00:50:26;98279.78;;;23.13;48.08
31225;BME280;17847;31.524;74.366;2023-04-27T00:52:57;98291.41;;;23.13;48.67
31225;BME280;17847;31.524;74.366;2023-04-27T00:55:27;98287.88;;;23.13;48.37
31225;BME280;17847;31.524;74.366;2023-04-27T00:57:56;98300.53;;;23.17;48.80
31225;BME280;17847;31.524;74.366;2023-04-27T01:00:26;98307.28;;;23.20;48.01
31225;BME280;17847;31.524;74.366;2023-04-27T01:02:56;98312.91;;;23.23;48.10
31225;BME280;17847;31.524;74.366;2023-04-27T01:05:25;98313.72;;;23.24;48.67
31225;BME280;17847;31.524;74.366;2023-04-27T01:07:56;98304.81;;;23.23;48.72
31225;BME280;17847;31.524;74.366;2023-04-27T01:10:26;98310.75;;;23.25;48.89
31225;BME280;17847;31.524;74.366;2023-04-27T01:12:56;98316.16;;;23.25;48.83
31225;BME280;17847;31.524;74.366;2023-04-27T01:15:25;98315.34;;;23.25;48.71
31225;BME280;17847;31.524;74.366;2023-04-27T01:17:59;98310.75;;;23.25;48.69
31225;BME280;17847;31.524;74.366;2023-04-27T01:24:29;98316.28;;;23.39;48.15
31225;BME280;17847;31.524;74.366;2023-04-27T01:26:58;98314.88;;;23.47;48.27
31225;BME280;17847;31.524;74.366;2023-04-27T01:29:29;98307.53;;;23.52;48.11
31225;BME280;17847;31.524;74.366;2023-04-27T01:31:58;98305.59;;;23.58;47.97
31225;BME280;17847;31.524;74.366;2023-04-27T01:34:27;98294.44;;;23.64;48.59
31225;BME280;17847;31.524;74.366;2023-04-27T01:36:57;98293.56;;;23.69;47.69
31225;BME280;17847;31.524;74.366;2023-04-27T01:39:27;98301.84;;;23.78;47.92
31225;BME280;17847;31.524;74.366;2023-04-27T01:41:56;98294.28;;;23.80;48.00
31225;BME280;17847;31.524;74.366;2023-04-27T01:44:25;98297.97;;;23.89;46.80
31225;BME280;17847;31.524;74.366;2023-04-27T01:46:55;98309.00;;;23.92;47.46
31225;BME280;17847;31.524;74.366;2023-04-27T01:49:24;98310.03;;;23.96;47.50
31225;BME280;17847;31.524;74.366;2023-04-27T01:51:55;98316.94;;;24.07;46.41
31225;BME280;17847;31.524;74.366;2023-04-27T01:54:24;98330.91;;;24.14;45.11
31225;BME280;17847;31.524;74.366;2023-04-27T01:56:55;98346.09;;;24.15;45.17
31225;BME280;17847;31.524;74.366;2023-04-27T01:59:27;98360.88;;;24.23;46.22
31225;BME280;17847;31.524;74.366;2023-04-27T02:01:56;98371.59;;;24.33;46.16
31225;BME280;17847;31.524;74.366;2023-04-27T02:04:25;98383.97;;;24.39;46.80
31225;BME280;17847;31.524;74.366;2023-04-27T02:06:55;98389.91;;;24.41;46.80
31225;BME280;17847;31.524;74.366;2023-04-27T02:09:24;98399.88;;;24.46;46.53
31225;BME280;17847;31.524;74.366;2023-04-27T02:11:53;98392.19;;;24.53;45.85
31225;BME280;17847;31.524;74.366;2023-04-27T02:14:22;98393.75;;;24.59;46.10
31225;BME280;17847;31.524;74.366;2023-04-27T02:17:23;98386.78;;;24.72;46.65
31225;BME280;17847;31.524;74.366;2023-04-27T02:19:52;98384.31;;;24.75;45.75
31225;BME280;17847;31.524;74.366;2023-04-27T02:22:21;98389.16;;;24.97;45.07
31225;BME280;17847;31.524;74.366;2023-04-27T02:24:51;98399.78;;;25.31;44.78
31225;BME280;17847;31.524;74.366;2023-04-27T02:27:20;98403.16;;;25.74;44.38
31225;BME280;17847;31.524;74.366;2023-04-27T02:29:50;98414.97;;;26.10;42.96
31225;BME280;17847;31.524;74.366;2023-04-27T02:32:21;98419.75;;;26.32;42.10
31225;BME280;17847;31.524;74.366;2023-04-27T02:34:50;98424.03;;;26.74;41.64
31225;BME280;17847;31.524;74.366;2023-04-27T02:37:19;98438.84;;;26.95;41.96
31225;BME280;17847;31.524;74.366;2023-04-27T02:39:49;98440.75;;;26.54;42.57
31225;BME280;17847;31.524;74.366;2023-04-27T02:42:18;98441.44;;;26.87;41.84
31225;BME280;17847;31.524;74.366;2023-04-27T02:45:46;98445.66;;;26.79;41.04
31225;BME280;17847;31.524;74.366;2023-04-27T02:49:15;98446.28;;;26.76;41.63
31225;BME280;17847;31.524;74.366;2023-04-27T02:52:14;98451.53;;;26.86;41.93
31225;BME280;17847;31.524;74.366;2023-04-27T02:54:43;98445.47;;;26.48;42.90
31225;BME280;17847;31.524;74.366;2023-04-27T02:57:46;98452.72;;;26.39;42.60
31225;BME280;17847;31.524;74.366;2023-04-27T03:00:15;98445.88;;;26.28;43.08
31225;BME280;17847;31.524;74.366;2023-04-27T03:02:45;98451.66;;;26.08;42.97
31225;BME280;17847;31.524;74.366;2023-04-27T03:05:15;98464.19;;;25.90;43.09
31225;BME280;17847;31.524;74.366;2023-04-27T03:07:44;98459.72;;;25.80;43.21
31225;BME280;17847;31.524;74.366;2023-04-27T03:10:13;98460.38;;;25.91;41.39
31225;BME280;17847;31.524;74.366;2023-04-27T03:12:43;98477.06;;;25.98;43.80
31225;BME280;17847;31.524;74.366;2023-04-27T03:15:12;98482.91;;;26.05;43.36
31225;BME280;17847;31.524;74.366;2023-04-27T03:17:42;98477.88;;;25.99;43.96
31225;BME280;17847;31.524;74.366;2023-04-27T03:20:12;98481.19;;;25.96;43.66
31225;BME280;17847;31.524;74.366;2023-04-27T03:22:42;98476.88;;;26.08;40.50
31225;BME280;17847;31.524;74.366;2023-04-27T03:25:13;98480.81;;;26.16;42.39
31225;BME280;17847;31.524;74.366;2023-04-27T03:27:43;98477.59;;;26.14;41.17
31225;BME280;17847;31.524;74.366;2023-04-27T03:31:12;98480.00;;;26.02;43.55
31225;BME280;17847;31.524;74.366;2023-04-27T03:33:42;98483.28;;;25.99;44.37
31225;BME280;17847;31.524;74.366;2023-04-27T03:36:12;98488.44;;;26.00;44.51
31225;BME280;17847;31.524;74.366;2023-04-27T03:39:19;98488.22;;;25.97;44.38
31225;BME280;17847;31.524;74.366;2023-04-27T03:41:49;98489.41;;;25.90;45.58
31225;BME280;17847;31.524;74.366;2023-04-27T03:44:18;98499.41;;;25.76;44.69
31225;BME280;17847;31.524;74.366;2023-04-27T03:47:14;98495.41;;;25.55;44.71
31225;BME280;17847;31.524;74.366;2023-04-27T03:49:43;98489.00;;;25.46;44.52
31225;BME280;17847;31.524;74.366;2023-04-27T03:52:13;98487.56;;;25.35;44.62
31225;BME280;17847;31.524;74.366;2023-04-27T03:54:42;98478.31;;;25.36;45.50
31225;BME280;17847;31.524;74.366;2023-04-27T03:57:21;98482.84;;;25.40;42.73
31225;BME280;17847;31.524;74.366;2023-04-27T03:59:51;98486.59;;;25.44;45.44
31225;BME280;17847;31.524;74.366;2023-04-27T04:02:20;98495.84;;;25.43;44.72
31225;BME280;17847;31.524;74.366;2023-04-27T04:04:50;98484.59;;;25.50;44.45
31225;BME280;17847;31.524;74.366;2023-04-27T04:07:20;98487.72;;;25.62;44.07
31225;BME280;17847;31.524;74.366;2023-04-27T04:09:49;98480.06;;;25.64;44.12
31225;BME280;17847;31.524;74.366;2023-04-27T04:12:18;98481.84;;;25.55;46.85
31225;BME280;17847;31.524;74.366;2023-04-27T04:14:49;98488.38;;;25.54;46.77
31225;BME280;17847;31.524;74.366;2023-04-27T04:17:19;98480.47;;;25.58;46.32
31225;BME280;17847;31.524;74.366;2023-04-27T04:19:49;98499.88;;;25.65;46.78
31225;BME280;17847;31.524;74.366;2023-04-27T04:22:18;98512.63;;;25.64;45.13
31225;BME280;17847;31.524;74.366;2023-04-27T04:24:49;98503.25;;;25.75;44.20
31225;BME280;17847;31.524;74.366;2023-04-27T04:27:18;98507.41;;;25.68;46.51
31225;BME280;17847;31.524;74.366;2023-04-27T04:30:19;98508.44;;;25.72;46.01
31225;BME280;17847;31.524;74.366;2023-04-27T04:32:51;98517.56;;;25.94;44.87
31225;BME280;17847;31.524;74.366;2023-04-27T04:35:21;98521.75;;;25.87;46.57
31225;BME280;17847;31.524;74.366;2023-04-27T04:37:50;98527.94;;;25.92;40.80
31225;BME280;17847;31.524;74.366;2023-04-27T04:40:51;98527.84;;;25.98;44.39
31225;BME280;17847;31.524;74.366;2023-04-27T04:43:48;98523.81;;;25.95;45.18
31225;BME280;17847;31.524;74.366;2023-04-27T04:46:17;98535.31;;;26.06;42.86
31225;BME280;17847;31.524;74.366;2023-04-27T04:48:47;98516.19;;;25.97;44.74
31225;BME280;17847;31.524;74.366;2023-04-27T04:51:20;98519.63;;;26.16;44.17
31225;BME280;17847;31.524;74.366;2023-04-27T04:53:49;98523.69;;;26.19;45.40
31225;BME280;17847;31.524;74.366;2023-04-27T04:56:18;98532.81;;;26.69;43.52
31225;BME280;17847;31.524;74.366;2023-04-27T04:58:48;98534.63;;;27.14;42.45
31225;BME280;17847;31.524;74.366;2023-04-27T05:01:18;98532.81;;;27.10;42.71
31225;BME280;17847;31.524;74.366;2023-04-27T05:03:47;98539.91;;;26.97;41.60
31225;BME280;17847;31.524;74.366;2023-04-27T05:06:17;98544.72;;;27.00;43.66
31225;BME280;17847;31.524;74.366;2023-04-27T05:08:47;98546.50;;;27.32;41.48
31225;BME280;17847;31.524;74.366;2023-04-27T05:11:16;98541.47;;;27.25;42.41
31225;BME280;17847;31.524;74.366;2023-04-27T05:13:46;98538.53;;;27.22;41.94
31225;BME280;17847;31.524;74.366;2023-04-27T05:16:15;98539.69;;;27.21;41.52
31225;BME280;17847;31.524;74.366;2023-04-27T05:18:44;98545.22;;;27.02;43.70
31225;BME280;17847;31.524;74.366;2023-04-27T05:21:15;98549.53;;;27.31;41.58
31225;BME280;17847;31.524;74.366;2023-04-27T05:23:45;98561.34;;;27.12;43.52
31225;BME280;17847;31.524;74.366;2023-04-27T05:26:16;98560.19;;;27.27;42.66
31225;BME280;17847;31.524;74.366;2023-04-27T05:28:46;98551.16;;;27.18;43.10
31225;BME280;17847;31.524;74.366;2023-04-27T05:31:17;98557.75;;;27.53;40.21
31225;BME280;17847;31.524;74.366;2023-04-27T05:33:46;98556.75;;;27.85;35.31
31225;BME280;17847;31.524;74.366;2023-04-27T05:36:16;98562.84;;;28.26;39.06
31225;BME280;17847;31.524;74.366;2023-04-27T05:38:45;98550.50;;;28.59;38.41
31225;BME280;17847;31.524;74.366;2023-04-27T05:41:15;98553.56;;;28.89;38.96
31225;BME280;17847;31.524;74.366;2023-04-27T05:43:45;98554.72;;;29.05;34.77
31225;BME280;17847;31.524;74.366;2023-04-27T05:46:15;98545.06;;;28.99;37.75
31225;BME280;17847;31.524;74.366;2023-04-27T05:48:44;98552.84;;;29.23;36.06
31225;BME280;17847;31.524;74.366;2023-04-27T05:51:14;98552.50;;;29.07;38.61
31225;BME280;17847;31.524;74.366;2023-04-27T05:53:43;98549.91;;;28.93;40.65
31225;BME280;17847;31.524;74.366;2023-04-27T05:56:12;98547.28;;;28.80;38.39
31225;BME280;17847;31.524;74.366;2023-04-27T05:58:42;98539.59;;;28.90;38.23
31225;BME280;17847;31.524;74.366;2023-04-27T06:01:11;98544.34;;;29.16;39.09
31225;BME280;17847;31.524;74.366;2023-04-27T06:03:41;98534.31;;;29.51;35.62
31225;BME280;17847;31.524;74.366;2023-04-27T06:06:11;98539.59;;;29.73;35.18
31225;BME280;17847;31.524;74.366;2023-04-27T06:08:41;98538.81;;;29.89;34.28
31225;BME280;17847;31.524;74.366;2023-04-27T06:11:10;98536.06;;;29.98;37.37
31225;BME280;17847;31.524;74.366;2023-04-27T06:13:40;98539.63;;;29.64;35.57
31225;BME280;17847;31.524;74.366;2023-04-27T06:16:09;98534.97;;;29.65;37.95
31225;BME280;17847;31.524;74.366;2023-04-27T06:18:38;98544.56;;;29.71;36.74
31225;BME280;17847;31.524;74.366;2023-04-27T06:21:08;98534.75;;;29.44;38.37
31225;BME280;17847;31.524;74.366;2023-04-27T06:23:38;98534.16;;;29.73;34.69
31225;BME280;17847;31.524;74.366;2023-04-27T06:26:07;98525.00;;;29.77;32.39
31225;BME280;17847;31.524;74.366;2023-04-27T06:32:36;98534.16;;;29.90;34.13
31225;BME280;17847;31.524;74.366;2023-04-27T06:35:05;98526.44;;;29.58;37.95
31225;BME280;17847;31.524;74.366;2023-04-27T06:37:34;98522.56;;;29.67;37.72
31225;BME280;17847;31.524;74.366;2023-04-27T06:40:07;98525.97;;;29.56;32.59
31225;BME280;17847;31.524;74.366;2023-04-27T06:42:37;98532.19;;;29.48;33.63
31225;BME280;17847;31.524;74.366;2023-04-27T06:45:08;98530.13;;;29.44;37.99
31225;BME280;17847;31.524;74.366;2023-04-27T06:47:37;98522.97;;;29.09;37.46
31225;BME280;17847;31.524;74.366;2023-04-27T06:50:07;98511.41;;;29.12;37.97
31225;BME280;17847;31.524;74.366;2023-04-27T06:52:37;98521.88;;;29.27;37.26
31225;BME280;17847;31.524;74.366;2023-04-27T06:55:07;98512.78;;;29.32;37.93
31225;BME280;17847;31.524;74.366;2023-04-27T06:57:36;98500.59;;;29.29;38.34
31225;BME280;17847;31.524;74.366;2023-04-27T07:00:07;98516.97;;;29.29;37.98
31225;BME280;17847;31.524;74.366;2023-04-27T07:02:37;98504.59;;;29.66;32.66
31225;BME280;17847;31.524;74.366;2023-04-27T07:05:07;98508.91;;;29.76;36.72
31225;BME280;17847;31.524;74.366;2023-04-27T07:07:36;98499.75;;;30.06;37.14
31225;BME280;17847;31.524;74.366;2023-04-27T07:10:06;98498.28;;;30.17;37.25
31225;BME280;17847;31.524;74.366;2023-04-27T07:12:36;98492.06;;;30.55;31.50
31225;BME280;17847;31.524;74.366;2023-04-27T07:15:07;98495.06;;;30.15;35.27
31225;BME280;17847;31.524;74.366;2023-04-27T07:17:36;98491.19;;;30.25;30.61
31225;BME280;17847;31.524;74.366;2023-04-27T07:20:06;98491.06;;;30.13;33.61
31225;BME280;17847;31.524;74.366;2023-04-27T07:23:07;98486.53;;;30.25;36.80
31225;BME280;17847;31.524;74.366;2023-04-27T07:26:34;98486.97;;;30.27;32.11
31225;BME280;17847;31.524;74.366;2023-04-27T07:30:03;98476.16;;;29.93;35.39
31225;BME280;17847;31.524;74.366;2023-04-27T07:32:38;98479.00;;;30.05;32.93
31225;BME280;17847;31.524;74.366;2023-04-27T07:35:09;98478.91;;;29.67;33.80
31225;BME280;17847;31.524;74.366;2023-04-27T07:37:39;98470.56;;;29.29;37.82
31225;BME280;17847;31.524;74.366;2023-04-27T07:40:09;98463.97;;;29.30;36.12
31225;BME280;17847;31.524;74.366;2023-04-27T07:43:41;98456.56;;;29.14;38.91
31225;BME280;17847;31.524;74.366;2023-04-27T07:47:08;98446.56;;;28.83;40.36
31225;BME280;17847;31.524;74.366;2023-04-27T07:50:37;98441.78;;;29.23;39.45
31225;BME280;17847;31.524;74.366;2023-04-27T07:54:05;98440.69;;;29.67;33.55
31225;BME280;17847;31.524;74.366;2023-04-27T07:57:32;98436.31;;;29.92;36.58
31225;BME280;17847;31.524;74.366;2023-04-27T08:00:59;98430.81;;;30.01;35.19
31225;BME280;17847;31.524;74.366;2023-04-27T08:03:29;98427.47;;;29.86;37.16
31225;BME280;17847;31.524;74.366;2023-04-27T08:05:59;98426.72;;;29.69;37.90
31225;BME280;17847;31.524;74.366;2023-04-27T08:08:29;98425.38;;;29.92;31.63
31225;BME280;17847;31.524;74.366;2023-04-27T08:10:58;98424.94;;;29.73;35.54
31225;BME280;17847;31.524;74.366;2023-04-27T08:13:27;98411.94;;;29.78;32.63
31225;BME280;17847;31.524;74.366;2023-04-27T08:16:28;98407.06;;;29.84;31.22
31225;BME280;17847;31.524;74.366;2023-04-27T08:18:58;98401.50;;;29.72;35.13
31225;BME280;17847;31.524;74.366;2023-04-27T08:22:00;98404.50;;;29.79;34.69
31225;BME280;17847;31.524;74.366;2023-04-27T08:24:30;98409.16;;;29.96;34.71
31225;BME280;17847;31.524;74.366;2023-04-27T08:27:31;98398.06;;;29.92;33.42
31225;BME280;17847;31.524;74.366;2023-04-27T08:30:01;98404.06;;;29.68;32.96
31225;BME280;17847;31.524;74.366;2023-04-27T08:32:30;98404.81;;;30.03;35.72
31225;BME280;17847;31.524;74.366;2023-04-27T08:35:31;98392.31;;;29.76;34.94
31225;BME280;17847;31.524;74.366;2023-04-27T08:38:01;98382.34;;;29.89;35.99
31225;BME280;17847;31.524;74.366;2023-04-27T08:40:31;98384.53;;;29.32;38.83
31225;BME280;17847;31.524;74.366;2023-04-27T08:43:00;98379.06;;;28.80;40.36
31225;BME280;17847;31.524;74.366;2023-04-27T08:45:31;98384.59;;;28.49;41.70
31225;BME280;17847;31.524;74.366;2023-04-27T08:48:00;98380.22;;;28.40;41.47
31225;BME280;17847;31.524;74.366;2023-04-27T08:50:29;98372.00;;;28.23;41.55
31225;BME280;17847;31.524;74.366;2023-04-27T08:52:59;98374.91;;;28.26;40.83
31225;BME280;17847;31.524;74.366;2023-04-27T08:55:29;98371.66;;;28.24;40.49
31225;BME280;17847;31.524;74.366;2023-04-27T08:57:58;98361.25;;;28.18;41.21
31225;BME280;17847;31.524;74.366;2023-04-27T09:00:40;98358.88;;;28.33;41.12
31225;BME280;17847;31.524;74.366;2023-04-27T09:03:23;98356.28;;;28.28;39.40
31225;BME280;17847;31.524;74.366;2023-04-27T09:05:54;98358.56;;;28.26;40.48
31225;BME280;17847;31.524;74.366;2023-04-27T09:08:59;98355.53;;;28.28;40.78
31225;BME280;17847;31.524;74.366;2023-04-27T09:11:38;98352.28;;;28.26;41.56
31225;BME280;17847;31.524;74.366;2023-04-27T09:14:20;98355.25;;;28.07;42.03
31225;BME280;17847;31.524;74.366;2023-04-27T09:16:57;98352.03;;;28.05;41.41
31225;BME280;17847;31.524;74.366;2023-04-27T09:19:28;98342.38;;;27.90;41.44
31225;BME280;17847;31.524;74.366;2023-04-27T09:22:09;98337.75;;;27.99;40.53
31225;BME280;17847;31.524;74.366;2023-04-27T09:24:49;98333.44;;;27.98;41.53
31225;BME280;17847;31.524;74.366;2023-04-27T09:27:20;98331.69;;;28.02;41.94
31225;BME280;17847;31.524;74.366;2023-04-27T09:29:51;98321.75;;;28.06;41.91
31225;BME280;17847;31.524;74.366;2023-04-27T09:32:20;98327.75;;;28.17;41.96
31225;BME280;17847;31.524;74.366;2023-04-27T09:34:50;98323.19;;;28.04;41.68
31225;BME280;17847;31.524;74.366;2023-04-27T09:37:20;98318.94;;;28.20;40.74
31225;BME280;17847;31.524;74.366;2023-04-27T09:40:24;98313.63;;;28.15;39.85
31225;BME280;17847;31.524;74.366;2023-04-27T09:42:59;98314.97;;;27.87;40.72
31225;BME280;17847;31.524;74.366;2023-04-27T09:45:34;98315.44;;;27.89;41.75
31225;BME280;17847;31.524;74.366;2023-04-27T09:48:31;98309.56;;;27.95;39.96
31225;BME280;17847;31.524;74.366;2023-04-27T09:51:00;98308.25;;;27.93;41.02
31225;BME280;17847;31.524;74.366;2023-04-27T09:53:37;98295.66;;;27.97;41.56
31225;BME280;17847;31.524;74.366;2023-04-27T09:59:07;98289.00;;;28.20;40.26
31225;BME280;17847;31.524;74.366;2023-04-27T10:01:45;98290.19;;;27.97;40.46
31225;BME280;17847;31.524;74.366;2023-04-27T10:07:25;98287.31;;;28.02;39.20
31225;BME280;17847;31.524;74.366;2023-04-27T10:10:00;98275.16;;;28.08;40.22
31225;BME280;17847;31.524;74.366;2023-04-27T10:12:34;98276.03;;;28.34;34.10
31225;BME280;17847;31.524;74.366;2023-04-27T10:15:13;98271.75;;;28.68;38.10
31225;BME280;17847;31.524;74.366;2023-04-27T10:17:50;98266.59;;;28.49;38.94
31225;BME280;17847;31.524;74.366;2023-04-27T10:20:31;98258.59;;;28.78;36.36
31225;BME280;17847;31.524;74.366;2023-04-27T10:23:02;98258.72;;;29.16;30.69
31225;BME280;17847;31.524;74.366;2023-04-27T10:25:39;98256.97;;;29.12;36.20
31225;BME280;17847;31.524;74.366;2023-04-27T10:28:15;98250.94;;;29.44;35.27
31225;BME280;17847;31.524;74.366;2023-04-27T10:30:46;98241.66;;;29.45;33.99
31225;BME280;17847;31.524;74.366;2023-04-27T10:33:18;98242.00;;;29.26;34.88
31225;BME280;17847;31.524;74.366;2023-04-27T10:35:57;98240.69;;;29.41;31.55
31225;BME280;17847;31.524;74.366;2023-04-27T10:38:30;98240.63;;;29.03;35.75
31225;BME280;17847;31.524;74.366;2023-04-27T10:41:02;98228.75;;;28.99;36.75
31225;BME280;17847;31.524;74.366;2023-04-27T10:43:34;98232.16;;;28.79;36.21
31225;BME280;17847;31.524;74.366;2023-04-27T10:46:09;98229.44;;;28.79;37.37
31225;BME280;17847;31.524;74.366;2023-04-27T10:49:12;98222.22;;;28.74;37.60
31225;BME280;17847;31.524;74.366;2023-04-27T10:51:44;98225.09;;;28.52;38.45
31225;BME280;17847;31.524;74.366;2023-04-27T10:54:16;98223.00;;;28.23;39.40
31225;BME280;17847;31.524;74.366;2023-04-27T10:56:47;98217.47;;;27.97;39.97
31225;BME280;17847;31.524;74.366;2023-04-27T11:02:53;98205.13;;;27.83;40.45
31225;BME280;17847;31.524;74.366;2023-04-27T11:05:26;98202.56;;;27.78;40.81
31225;BME280;17847;31.524;74.366;2023-04-27T11:08:08;98199.00;;;27.68;40.24
31225;BME280;17847;31.524;74.366;2023-04-27T11:10:43;98194.38;;;27.69;40.98
31225;BME280;17847;31.524;74.366;2023-04-27T11:13:17;98182.50;;;27.56;41.68
31225;BME280;17847;31.524;74.366;2023-04-27T11:15:47;98189.06;;;27.64;41.04
31225;BME280;17847;31.524;74.366;2023-04-27T11:18:19;98177.38;;;27.63;40.09
31225;BME280;17847;31.524;74.366;2023-04-27T11:26:23;98178.28;;;27.50;41.17
31225;BME280;17847;31.524;74.366;2023-04-27T11:31:47;98165.00;;;27.49;41.08
31225;BME280;17847;31.524;74.366;2023-04-27T11:34:22;98163.84;;;27.41;41.46
31225;BME280;17847;31.524;74.366;2023-04-27T11:36:59;98168.75;;;27.61;40.19
31225;BME280;17847;31.524;74.366;2023-04-27T11:39:44;98167.94;;;27.61;40.04
31225;BME280;17847;31.524;74.366;2023-04-27T11:42:18;98163.63;;;27.68;38.41
31225;BME280;17847;31.524;74.366;2023-04-27T11:47:24;98161.31;;;28.44;32.65
31225;BME280;17847;31.524;74.366;2023-04-27T11:50:55;98153.22;;;28.91;33.28
31225;BME280;17847;31.524;74.366;2023-04-27T11:53:33;98152.03;;;29.09;32.29
31225;BME280;17847;31.524;74.366;2023-04-27T11:56:05;98163.28;;;28.99;31.90
31225;BME280;17847;31.524;74.366;2023-04-27T11:58:37;98145.91;;;29.12;34.07
31225;BME280;17847;31.524;74.366;2023-04-27T12:01:09;98154.44;;;29.11;35.07
31225;BME280;17847;31.524;74.366;2023-04-27T12:03:40;98154.47;;;29.02;32.72
31225;BME280;17847;31.524;74.366;2023-04-27T12:06:10;98149.59;;;29.25;32.21
31225;BME280;17847;31.524;74.366;2023-04-27T12:09:30;98151.94;;;28.97;33.72
31225;BME280;17847;31.524;74.366;2023-04-27T12:12:31;98155.75;;;29.05;33.56
31225;BME280;17847;31.524;74.366;2023-04-27T12:15:02;98141.88;;;28.80;36.23
31225;BME280;17847;31.524;74.366;2023-04-27T12:17:31;98142.22;;;29.25;29.63
31225;BME280;17847;31.524;74.366;2023-04-27T12:20:27;98147.47;;;29.30;29.70
31225;BME280;17847;31.524;74.366;2023-04-27T12:22:57;98143.53;;;29.11;33.26
31225;BME280;17847;31.524;74.366;2023-04-27T12:25:27;98146.72;;;29.13;30.26
31225;BME280;17847;31.524;74.366;2023-04-27T12:27:57;98143.09;;;29.00;34.21
31225;BME280;17847;31.524;74.366;2023-04-27T12:30:26;98145.69;;;28.88;34.49
31225;BME280;17847;31.524;74.366;2023-04-27T12:32:56;98152.00;;;28.63;33.87
31225;BME280;17847;31.524;74.366;2023-04-27T12:35:28;98156.97;;;28.52;34.43
31225;BME280;17847;31.524;74.366;2023-04-27T12:38:00;98160.50;;;28.35;36.53
31225;BME280;17847;31.524;74.366;2023-04-27T12:40:30;98149.13;;;28.33;35.62
31225;BME280;17847;31.524;74.366;2023-04-27T12:42:59;98153.28;;;28.39;33.75
31225;BME280;17847;31.524;74.366;2023-04-27T12:45:29;98155.38;;;28.42;32.11
31225;BME280;17847;31.524;74.366;2023-04-27T12:47:59;98150.41;;;28.36;32.78
31225;BME280;17847;31.524;74.366;2023-04-27T12:50:31;98149.94;;;28.25;36.65
31225;BME280;17847;31.524;74.366;2023-04-27T12:53:01;98144.63;;;28.03;38.30
31225;BME280;17847;31.524;74.366;2023-04-27T12:55:31;98150.44;;;28.19;34.61
31225;BME280;17847;31.524;74.366;2023-04-27T12:58:01;98162.25;;;28.05;38.69
31225;BME280;17847;31.524;74.366;2023-04-27T13:00:33;98154.22;;;28.00;36.82
31225;BME280;17847;31.524;74.366;2023-04-27T13:03:04;98155.78;;;27.84;39.21
31225;BME280;17847;31.524;74.366;2023-04-27T13:05:35;98158.03;;;27.74;39.82
31225;BME280;17847;31.524;74.366;2023-04-27T13:08:05;98156.91;;;27.66;39.78
31225;BME280;17847;31.524;74.366;2023-04-27T13:10:34;98158.44;;;27.50;40.95
31225;BME280;17847;31.524;74.366;2023-04-27T13:13:05;98164.94;;;27.40;41.32
31225;BME280;17847;31.524;74.366;2023-04-27T13:15:35;98169.91;;;27.38;40.49
31225;BME280;17847;31.524;74.366;2023-04-27T13:18:06;98173.25;;;27.35;41.24
31225;BME280;17847;31.524;74.366;2023-04-27T13:20:35;98174.38;;;27.34;40.77
31225;BME280;17847;31.524;74.366;2023-04-27T13:23:06;98170.19;;;27.28;41.47
31225;BME280;17847;31.524;74.366;2023-04-27T13:25:37;98168.72;;;27.22;41.57
31225;BME280;17847;31.524;74.366;2023-04-27T13:28:07;98172.69;;;27.16;42.39
31225;BME280;17847;31.524;74.366;2023-04-27T13:30:37;98185.16;;;27.08;42.32
31225;BME280;17847;31.524;74.366;2023-04-27T13:33:09;98183.03;;;27.05;41.56
31225;BME280;17847;31.524;74.366;2023-04-27T13:35:50;98188.81;;;27.04;41.86
31225;BME280;17847;31.524;74.366;2023-04-27T13:38:19;98182.50;;;26.95;43.13
31225;BME280;17847;31.524;74.366;2023-04-27T13:40:49;98191.78;;;26.94;41.56
31225;BME280;17847;31.524;74.366;2023-04-27T13:43:19;98195.72;;;26.88;42.14
31225;BME280;17847;31.524;74.366;2023-04-27T13:45:49;98200.78;;;26.80;43.61
31225;BME280;17847;31.524;74.366;2023-04-27T13:48:20;98203.91;;;26.74;43.88
31225;BME280;17847;31.524;74.366;2023-04-27T13:50:51;98201.94;;;26.66;44.61
31225;BME280;17847;31.524;74.366;2023-04-27T13:53:21;98208.44;;;26.56;44.31
31225;BME280;17847;31.524;74.366;2023-04-27T13:55:54;98211.25;;;26.51;44.33
31225;BME280;17847;31.524;74.366;2023-04-27T13:58:26;98214.59;;;26.48;43.23